Time;durP1;ratioP1;P1;durP2;ratioP2;P2;SDS_P1;SDS_P2;PMS_P1;PMS_P2;Temp;Humidity;BMP_temperature;BMP_pressure;BME280_temperature;BME280_humidity;BME280_pressure;Samples;Min_cycle;Max_cycle;Signal;HPM_P1;HPM_P2
2023/12/12 00:01:34;;;;;;;0.10;0.10;;;;;;;;;;4976478;28;20031;-91
2023/12/12 00:04:00;;;;;;;0.00;0.00;;;;;;;;;;4975586;28;20024;-92
2023/12/12 00:06:26;;;;;;;0.10;0.10;;;;;;;;;;4971393;28;20023;-92
2023/12/12 00:08:52;;;;;;;0.10;0.10;;;;;;;;;;4956656;28;20031;-92
2023/12/12 00:11:18;;;;;;;0.10;0.10;;;;;;;;;;4957094;28;20040;-92
2023/12/12 00:13:44;;;;;;;0.10;0.10;;;;;;;;;;4957344;28;20079;-93
2023/12/12 00:16:09;;;;;;;0.10;0.10;;;;;;;;;;4973959;28;20036;-94
2023/12/12 00:18:36;;;;;;;0.10;0.10;;;;;;;;;;4975434;28;20035;-93
2023/12/12 00:21:02;;;;;;;0.10;0.10;;;;;;;;;;4957289;28;20027;-93
2023/12/12 00:23:28;;;;;;;0.10;0.10;;;;;;;;;;4972861;28;20019;-93
2023/12/12 00:25:54;;;;;;;0.08;0.08;;;;;;;;;;4957348;28;20019;-93
2023/12/12 00:28:20;;;;;;;0.10;0.10;;;;;;;;;;4954700;28;20145;-92
2023/12/12 00:30:47;;;;;;;0.10;0.10;;;;;;;;;;4963516;28;20012;-91
2023/12/12 00:33:13;;;;;;;0.10;0.10;;;;;;;;;;4962316;28;20063;-94
2023/12/12 00:35:39;;;;;;;0.10;0.10;;;;;;;;;;4959654;28;20012;-94
2023/12/12 00:38:05;;;;;;;0.10;0.10;;;;;;;;;;4959153;28;20020;-93
2023/12/12 00:40:32;;;;;;;0.10;0.10;;;6.30;99.90;;;;;;4974562;28;20023;-93
2023/12/12 00:42:58;;;;;;;0.10;0.10;;;;;;;;;;4959524;28;20016;-94
2023/12/12 06:18:17;;;;;;;0.10;0.10;;;;;;;;;;4935239;28;20059;-94
2023/12/12 06:20:43;;;;;;;0.00;0.00;;;;;;;;;;4957291;28;20028;-92
2023/12/12 06:23:12;;;;;;;0.10;0.10;;;;;;;;;;4939803;29;20029;-92
2023/12/12 06:25:38;;;;;;;0.03;0.03;;;;;;;;;;4941050;29;20013;-93
2023/12/12 06:28:04;;;;;;;0.00;0.00;;;;;;;;;;4939628;28;20024;-92
2023/12/12 06:30:33;;;;;;;0.00;0.00;;;;;;;;;;4949797;28;20012;-93
2023/12/12 06:32:59;;;;;;;0.10;0.10;;;;;;;;;;4947839;29;20025;-94
2023/12/12 06:35:25;;;;;;;0.00;0.00;;;;;;;;;;4952022;28;20043;-92
2023/12/12 06:37:51;;;;;;;0.10;0.10;;;;;;;;;;4952158;29;20008;-92
2023/12/12 06:40:17;;;;;;;0.00;0.00;;;;;;;;;;4941605;29;20026;-93
2023/12/12 06:42:47;;;;;;;0.00;0.00;;;;;;;;;;4935320;29;20032;-93
2023/12/12 06:45:13;;;;;;;0.10;0.10;;;;;;;;;;4936632;29;20091;-94
2023/12/12 06:47:39;;;;;;;0.10;0.10;;;;;;;;;;4938197;29;20039;-93
2023/12/12 06:50:05;;;;;;;0.10;0.10;;;;;;;;;;4939015;29;20027;-91
2023/12/12 06:52:32;;;;;;;0.10;0.10;;;7.70;99.90;;;;;;4934362;29;20036;-93
2023/12/12 06:54:59;;;;;;;0.10;0.10;;;;;;;;;;4936521;29;20083;-93
2023/12/12 06:57:25;;;;;;;0.10;0.10;;;;;;;;;;4936593;29;20013;-93
2023/12/12 06:59:52;;;;;;;0.00;0.00;;;;;;;;;;4952639;29;20040;-95
2023/12/12 07:02:18;;;;;;;0.10;0.10;;;;;;;;;;4935665;29;20200;-91
2023/12/12 07:04:44;;;;;;;0.03;0.03;;;;;;;;;;4936133;29;20028;-92
2023/12/12 07:07:09;;;;;;;0.10;0.10;;;;;;;;;;4935883;29;20097;-93
2023/12/12 07:09:36;;;;;;;0.10;0.10;;;;;;;;;;4955162;29;20019;-93
2023/12/12 07:12:04;;;;;;;0.00;0.00;;;;;;;;;;4939617;29;20024;-91
2023/12/12 07:14:30;;;;;;;0.10;0.10;;;;;;;;;;4942568;29;20016;-92
2023/12/12 07:16:56;;;;;;;0.00;0.00;;;;;;;;;;4936944;28;20044;-94
2023/12/12 07:19:23;;;;;;;0.10;0.10;;;;;;;;;;4939121;29;20043;-94
2023/12/12 07:21:49;;;;;;;0.00;0.00;;;;;;;;;;4941222;29;20031;-93
2023/12/12 07:24:15;;;;;;;0.10;0.10;;;;;;;;;;4939014;29;20019;-93
2023/12/12 07:26:44;;;;;;;0.10;0.10;;;7.80;99.90;;;;;;4939138;29;20028;-93
2023/12/12 07:29:11;;;;;;;0.10;0.10;;;;;;;;;;4940005;29;20016;-92
2023/12/12 07:31:37;;;;;;;0.10;0.10;;;;;;;;;;4939848;29;20005;-93
2023/12/12 07:34:05;;;;;;;0.00;0.00;;;;;;;;;;4938385;29;20044;-91
2023/12/12 07:36:31;;;;;;;0.00;0.00;;;;;;;;;;4937697;29;20020;-93
2023/12/12 07:39:00;;;;;;;0.00;0.00;;;;;;;;;;4939060;29;20016;-92
2023/12/12 07:41:26;;;;;;;0.00;0.00;;;;;;;;;;4938908;29;20044;-95
2023/12/12 07:43:52;;;;;;;0.10;0.10;;;;;;;;;;4940859;29;20019;-94
2023/12/12 07:46:18;;;;;;;0.00;0.00;;;;;;;;;;4939517;29;20064;-93
2023/12/12 07:48:44;;;;;;;0.00;0.00;;;;;;;;;;4939398;29;20020;-95
2023/12/12 07:51:11;;;;;;;0.05;0.05;;;;;;;;;;4937951;29;20055;-93
2023/12/12 07:53:37;;;;;;;0.00;0.00;;;;;;;;;;4952765;29;20031;-93
2023/12/12 07:56:03;;;;;;;0.10;0.10;;;;;;;;;;4940809;29;20020;-94
2023/12/12 07:58:29;;;;;;;0.00;0.00;;;;;;;;;;4940988;29;20020;-94
2023/12/12 08:00:55;;;;;;;0.10;0.10;;;;;;;;;;4956368;29;20022;-93
2023/12/12 08:03:21;;;;;;;0.08;0.08;;;;;;;;;;4936189;29;20031;-93
2023/12/12 08:05:47;;;;;;;0.00;0.00;;;;;;;;;;4942766;29;20024;-93
2023/12/12 08:08:13;;;;;;;0.00;0.00;;;;;;;;;;4939817;29;20028;-93
2023/12/12 08:10:39;;;;;;;0.00;0.00;;;;;;;;;;4941554;29;20035;-93
2023/12/12 08:13:05;;;;;;;0.00;0.00;;;;;;;;;;4954469;29;20052;-92
2023/12/12 08:15:31;;;;;;;0.00;0.00;;;;;;;;;;4938489;29;20020;-92
2023/12/12 08:17:57;;;;;;;0.00;0.00;;;;;;;;;;4937217;29;20060;-92
2023/12/12 08:20:23;;;;;;;0.10;0.10;;;;;;;;;;4938971;29;20039;-94
2023/12/12 08:22:49;;;;;;;0.00;0.00;;;;;;;;;;4937734;29;20111;-93
2023/12/12 08:25:15;;;;;;;0.00;0.00;;;;;;;;;;4938046;29;20116;-92
2023/12/12 08:27:41;;;;;;;0.00;0.00;;;;;;;;;;4938689;29;20033;-92
2023/12/12 08:30:08;;;;;;;0.10;0.10;;;;;;;;;;4955456;28;20028;-93
2023/12/12 08:32:34;;;;;;;0.10;0.10;;;;;;;;;;4948379;28;20021;-93
2023/12/12 08:35:00;;;;;;;0.00;0.00;;;;;;;;;;4939030;29;20076;-93
2023/12/12 08:37:26;;;;;;;0.10;0.10;;;;;;;;;;4938373;29;20016;-93
2023/12/12 08:39:52;;;;;;;0.10;0.10;;;;;;;;;;4940636;28;20031;-92
2023/12/12 08:42:18;;;;;;;0.08;0.08;;;;;;;;;;4939285;28;20075;-92
2023/12/12 08:44:44;;;;;;;0.00;0.00;;;;;;;;;;4941457;28;20016;-92
2023/12/12 08:47:10;;;;;;;0.00;0.00;;;;;;;;;;4936563;28;20016;-93
2023/12/12 08:49:38;;;;;;;0.10;0.10;;;;;;;;;;4934864;28;20039;-93
2023/12/12 08:52:06;;;;;;;0.10;0.10;;;8.80;99.90;;;;;;4939580;29;20016;-92
2023/12/12 08:54:32;;;;;;;0.00;0.00;;;;;;;;;;4941904;29;20048;-95
2023/12/12 08:56:58;;;;;;;0.10;0.10;;;;;;;;;;4940184;29;20019;-94
2023/12/12 08:59:24;;;;;;;0.03;0.03;;;;;;;;;;4935452;29;20040;-92
2023/12/12 09:01:50;;;;;;;0.10;0.10;;;;;;;;;;4937423;29;20020;-93
2023/12/12 09:04:16;;;;;;;0.00;0.00;;;;;;;;;;4956663;28;20036;-92
2023/12/12 09:06:44;;;;;;;0.00;0.00;;;9.30;99.90;;;;;;4928397;29;20043;-92
2023/12/12 09:09:11;;;;;;;0.10;0.10;;;9.40;99.90;;;;;;4924981;29;20040;-94
2023/12/12 09:11:37;;;;;;;0.00;0.00;;;;;;;;;;4929686;29;20031;-93
2023/12/12 09:14:04;;;;;;;0.00;0.00;;;;;;;;;;4932124;29;20071;-93
2023/12/12 09:16:29;;;;;;;0.00;0.00;;;;;;;;;;4931653;29;20025;-92
2023/12/12 09:18:56;;;;;;;0.10;0.10;;;;;;;;;;4930613;29;20115;-93
2023/12/12 09:21:21;;;;;;;0.00;0.00;;;;;;;;;;4928326;29;20028;-93
2023/12/12 09:23:48;;;;;;;0.00;0.00;;;;;;;;;;4949998;29;20036;-92
2023/12/12 09:26:14;;;;;;;0.00;0.00;;;;;;;;;;4937807;29;20016;-95
2023/12/12 09:28:43;;;;;;;0.00;0.00;;;;;;;;;;4935254;29;20048;-93
2023/12/12 09:31:10;;;;;;;0.00;0.00;;;;;;;;;;4942050;29;20064;-94
2023/12/12 09:33:37;;;;;;;0.10;0.10;;;;;;;;;;4928939;29;20040;-92
2023/12/12 09:36:03;;;;;;;0.00;0.00;;;;;;;;;;4925393;29;20024;-93
2023/12/12 09:38:29;;;;;;;0.00;0.00;;;9.30;99.90;;;;;;4944648;29;20036;-93
2023/12/12 09:40:55;;;;;;;0.00;0.00;;;;;;;;;;4927969;29;20119;-93
2023/12/12 09:43:26;;;;;;;0.00;0.00;;;9.20;99.90;;;;;;4929727;29;20527;-93
2023/12/12 09:45:57;;;;;;;0.00;0.00;;;9.20;99.90;;;;;;4929447;29;20103;-92
2023/12/12 09:48:23;;;;;;;0.00;0.00;;;;;;;;;;4927571;29;20032;-92
2023/12/12 09:50:50;;;;;;;0.00;0.00;;;;;;;;;;4927782;29;20035;-93
2023/12/12 09:53:17;;;;;;;0.00;0.00;;;;;;;;;;4928719;29;20043;-93
2023/12/12 09:55:45;;;;;;;0.00;0.00;;;9.20;99.90;;;;;;4930280;29;20036;-93
2023/12/12 09:58:11;;;;;;;0.00;0.00;;;;;;;;;;4933969;29;20060;-93
2023/12/12 10:00:37;;;;;;;0.10;0.10;;;;;;;;;;4931124;29;20246;-94
2023/12/12 10:03:05;;;;;;;0.10;0.10;;;9.20;99.90;;;;;;4923463;29;20028;-93
2023/12/12 10:05:32;;;;;;;0.00;0.00;;;9.10;99.90;;;;;;4927950;29;20024;-92
2023/12/12 10:08:03;;;;;;;0.00;0.00;;;9.10;99.90;;;;;;4926983;29;20025;-93
2023/12/12 10:10:29;;;;;;;0.00;0.00;;;;;;;;;;4928337;29;20024;-93
2023/12/12 10:12:55;;;;;;;0.00;0.00;;;;;;;;;;4928623;29;20088;-93
2023/12/12 10:15:22;;;;;;;0.10;0.10;;;;;;;;;;4928641;29;20035;-93
2023/12/12 10:17:48;;;;;;;0.00;0.00;;;;;;;;;;4928126;29;20039;-93
2023/12/12 10:20:25;;;;;;;0.00;0.00;;;9.30;99.90;;;;;;4928966;29;20113;-92
2023/12/12 10:22:51;;;;;;;0.10;0.10;;;;;;;;;;4929868;29;20020;-92
2023/12/12 10:25:17;;;;;;;0.00;0.00;;;;;;;;;;4934722;29;20046;-93
2023/12/12 10:27:43;;;;;;;0.10;0.10;;;;;;;;;;4947961;29;20032;-93
2023/12/12 10:30:10;;;;;;;0.00;0.00;;;;;;;;;;4934075;29;20042;-91
2023/12/12 10:32:37;;;;;;;0.10;0.10;;;;;;;;;;4931049;29;20036;-93
2023/12/12 10:35:03;;;;;;;0.00;0.00;;;;;;;;;;4953315;29;20226;-93
2023/12/12 10:37:30;;;;;;;0.00;0.00;;;;;;;;;;4931386;29;20021;-93
2023/12/12 10:39:56;;;;;;;0.00;0.00;;;;;;;;;;4935586;29;20331;-93
2023/12/12 10:42:23;;;;;;;0.00;0.00;;;;;;;;;;4933798;29;20032;-92
2023/12/12 10:44:55;;;;;;;0.00;0.00;;;9.70;99.90;;;;;;4948693;29;20056;-93
2023/12/12 10:47:23;;;;;;;0.00;0.00;;;9.80;99.90;;;;;;4929254;29;20037;-93
2023/12/12 10:49:51;;;;;;;0.00;0.00;;;9.70;99.90;;;;;;4936290;29;20032;-93
2023/12/12 10:52:17;;;;;;;0.00;0.00;;;;;;;;;;4936093;29;20067;-93
2023/12/12 10:54:44;;;;;;;0.00;0.00;;;;;;;;;;4935217;29;20039;-94
2023/12/12 10:57:10;;;;;;;0.00;0.00;;;;;;;;;;4934642;29;20032;-92
2023/12/12 10:59:38;;;;;;;0.00;0.00;;;9.60;99.90;;;;;;4930192;29;20032;-92
2023/12/12 11:02:04;;;;;;;0.00;0.00;;;;;;;;;;4934903;29;20028;-93
2023/12/12 11:04:30;;;;;;;0.00;0.00;;;;;;;;;;4931069;29;20043;-92
2023/12/12 11:06:56;;;;;;;0.00;0.00;;;;;;;;;;4931704;29;20036;-92
2023/12/12 11:09:23;;;;;;;0.00;0.00;;;;;;;;;;4933855;29;20044;-92
2023/12/12 11:11:51;;;;;;;0.00;0.00;;;10.00;99.90;;;;;;4933623;29;20236;-92
2023/12/12 11:14:19;;;;;;;0.00;0.00;;;;;;;;;;4933291;29;20032;-93
2023/12/12 11:16:45;;;;;;;0.00;0.00;;;;;;;;;;4946313;29;20042;-93
2023/12/12 11:19:16;;;;;;;0.00;0.00;;;10.10;99.90;;;;;;4929480;29;20472;-92
2023/12/12 11:21:42;;;;;;;0.00;0.00;;;;;;;;;;4931153;29;20051;-92
2023/12/12 11:24:08;;;;;;;0.00;0.00;;;;;;;;;;4933465;29;20121;-93
2023/12/12 11:26:36;;;;;;;0.00;0.00;;;10.30;99.90;;;;;;4933396;29;20047;-90
2023/12/12 11:29:06;;;;;;;0.00;0.00;;;10.40;99.90;;;;;;4935442;29;20063;-92
2023/12/12 11:31:34;;;;;;;0.00;0.00;;;;;;;;;;4940891;29;20008;-94
2023/12/12 11:34:08;;;;;;;0.00;0.00;;;10.60;99.90;;;;;;4933587;29;20386;-93
2023/12/12 11:36:48;;;;;;;0.00;0.00;;;;;;;;;;4928457;29;20039;-92
2023/12/12 11:39:18;;;;;;;0.00;0.00;;;10.70;99.90;;;;;;4930482;29;20330;-92
2023/12/12 11:41:45;;;;;;;0.00;0.00;;;10.70;99.90;;;;;;4932108;29;20092;-92
2023/12/12 11:44:11;;;;;;;0.00;0.00;;;;;;;;;;4930055;29;20595;-92
2023/12/12 11:46:37;;;;;;;0.00;0.00;;;10.70;99.90;;;;;;4930413;29;20032;-91
2023/12/12 11:49:21;;;;;;;0.00;0.00;;;;;;;;;;4930873;29;20387;-91
2023/12/12 11:51:50;;;;;;;0.00;0.00;;;;;;;;;;4924332;29;20032;-91
2023/12/12 11:54:25;;;;;;;0.00;0.00;;;10.60;99.90;;;;;;4931106;29;20467;-92
2023/12/12 11:57:01;;;;;;;0.00;0.00;;;10.70;99.90;;;;;;4933602;29;20035;-92
2023/12/12 11:59:28;;;;;;;0.00;0.00;;;;;;;;;;4927290;29;20028;-93
2023/12/12 12:01:54;;;;;;;0.00;0.00;;;;;;;;;;4926825;29;20020;-91
2023/12/12 12:04:21;;;;;;;0.00;0.00;;;;;;;;;;4930384;29;20042;-93
2023/12/12 12:06:47;;;;;;;0.00;0.00;;;;;;;;;;4942519;29;20543;-93
2023/12/12 12:09:15;;;;;;;0.05;0.05;;;;;;;;;;4927615;29;20036;-91
2023/12/12 12:11:41;;;;;;;0.00;0.00;;;;;;;;;;4924927;29;20048;-93
2023/12/12 12:14:07;;;;;;;0.00;0.00;;;;;;;;;;4928152;29;20031;-92
2023/12/12 12:16:33;;;;;;;0.00;0.00;;;;;;;;;;4925185;29;20048;-92
2023/12/12 12:19:29;;;;;;;0.00;0.00;;;10.60;99.90;;;;;;4942302;29;20031;-92
2023/12/12 12:21:55;;;;;;;0.00;0.00;;;;;;;;;;4942576;29;20077;-93
2023/12/12 12:24:22;;;;;;;0.00;0.00;;;;;;;;;;4928009;29;20028;-92
2023/12/12 12:26:48;;;;;;;0.00;0.00;;;;;;;;;;4928675;29;20028;-92
2023/12/12 12:29:14;;;;;;;0.00;0.00;;;;;;;;;;4926775;29;20179;-92
2023/12/12 12:31:40;;;;;;;0.00;0.00;;;10.60;99.90;;;;;;4976308;23;20071;-87
2023/12/12 12:34:22;;;;;;;0.00;0.00;;;10.60;99.90;;;;;;4931386;29;20480;-87
2023/12/12 12:36:53;;;;;;;0.00;0.00;;;10.50;99.90;;;;;;4928127;29;20027;-87
2023/12/12 12:39:19;;;;;;;0.00;0.00;;;10.60;99.90;;;;;;4932038;29;20036;-89
2023/12/12 12:41:52;;;;;;;0.00;0.00;;;10.70;99.90;;;;;;4934313;29;20492;-87
2023/12/12 12:44:18;;;;;;;0.00;0.00;;;10.70;99.90;;;;;;4933904;29;20074;-87
2023/12/12 12:46:53;;;;;;;0.00;0.00;;;10.70;99.90;;;;;;4937002;29;20063;-87
2023/12/12 12:49:19;;;;;;;0.00;0.00;;;10.70;99.90;;;;;;4932615;29;20134;-85
2023/12/12 12:51:50;;;;;;;0.00;0.00;;;;;;;;;;4925924;29;20595;-86
2023/12/12 12:54:16;;;;;;;0.00;0.00;;;;;;;;;;4930614;29;20047;-86
2023/12/12 12:56:44;;;;;;;0.00;0.00;;;10.70;99.90;;;;;;4931432;29;20032;-87
2023/12/12 12:59:13;;;;;;;0.00;0.00;;;10.70;99.90;;;;;;4936560;28;20031;-86
2023/12/12 13:01:40;;;;;;;0.00;0.00;;;10.70;99.90;;;;;;4931793;29;20063;-86
2023/12/12 13:04:07;;;;;;;0.00;0.00;;;;;;;;;;4930037;29;20031;-86
2023/12/12 13:06:32;;;;;;;0.00;0.00;;;10.80;99.90;;;;;;4927587;29;20059;-87
2023/12/12 13:08:58;;;;;;;0.00;0.00;;;;;;;;;;4933833;29;20051;-88
2023/12/12 13:11:24;;;;;;;0.00;0.00;;;10.80;99.90;;;;;;4928996;29;20051;-89
2023/12/12 13:13:50;;;;;;;0.00;0.00;;;;;;;;;;4934362;29;20036;-86
2023/12/12 13:16:18;;;;;;;0.00;0.00;;;;;;;;;;4934812;29;20099;-86
2023/12/12 13:18:44;;;;;;;0.00;0.00;;;;;;;;;;4932791;29;20244;-89
2023/12/12 13:21:10;;;;;;;0.00;0.00;;;10.90;99.90;;;;;;4927166;29;20027;-90
2023/12/12 13:23:36;;;;;;;0.00;0.00;;;;;;;;;;4929552;29;20186;-86
2023/12/12 13:26:04;;;;;;;0.00;0.00;;;;;;;;;;4933486;29;20032;-86
2023/12/12 13:28:30;;;;;;;0.00;0.00;;;10.90;99.90;;;;;;4930730;29;20042;-86
2023/12/12 13:30:56;;;;;;;0.00;0.00;;;;;;;;;;4931332;29;20039;-85
2023/12/12 13:33:22;;;;;;;0.00;0.00;;;;;;;;;;4931644;29;20032;-86
2023/12/12 13:35:47;;;;;;;0.00;0.00;;;10.90;99.90;;;;;;4930596;29;20063;-87
2023/12/12 13:38:13;;;;;;;0.00;0.00;;;10.80;99.90;;;;;;4926560;29;20132;-88
2023/12/12 13:40:39;;;;;;;0.00;0.00;;;;;;;;;;4929433;29;20552;-88
2023/12/12 13:43:05;;;;;;;0.00;0.00;;;;;;;;;;4922480;29;20110;-87
2023/12/12 13:45:31;;;;;;;0.00;0.00;;;10.80;99.90;;;;;;4930190;29;20027;-86
2023/12/12 13:47:57;;;;;;;0.00;0.00;;;;;;;;;;4921539;29;20031;-86
2023/12/12 13:50:23;;;;;;;0.00;0.00;;;;;;;;;;4927216;29;20035;-89
2023/12/12 13:52:48;;;;;;;0.00;0.00;;;10.80;99.90;;;;;;4931911;29;20063;-87
2023/12/12 13:55:14;;;;;;;0.00;0.00;;;10.80;99.90;;;;;;4928954;29;20396;-88
2023/12/12 13:57:40;;;;;;;0.00;0.00;;;10.60;99.90;;;;;;4929726;29;20028;-88
2023/12/12 14:00:08;;;;;;;0.00;0.00;;;10.70;99.90;;;;;;4925821;29;20024;-87
2023/12/12 14:02:34;;;;;;;0.00;0.00;;;;;;;;;;4933379;29;20031;-87
2023/12/12 14:05:03;;;;;;;0.00;0.00;;;;;;;;;;4934557;29;20035;-86
2023/12/12 14:07:29;;;;;;;0.00;0.00;;;;;;;;;;4934818;29;20048;-86
2023/12/12 14:09:55;;;;;;;0.00;0.00;;;;;;;;;;4928784;29;20057;-86
2023/12/12 14:12:21;;;;;;;0.00;0.00;;;;;;;;;;4932003;29;20496;-89
2023/12/12 14:14:47;;;;;;;0.00;0.00;;;;;;;;;;4929850;29;21752;-88
2023/12/12 14:17:13;;;;;;;0.00;0.00;;;10.80;99.90;;;;;;4933905;29;20060;-86
2023/12/12 14:19:40;;;;;;;0.00;0.00;;;;;;;;;;4938187;29;20075;-87
2023/12/12 14:22:05;;;;;;;0.00;0.00;;;10.90;99.90;;;;;;4933749;29;20020;-87
2023/12/12 14:24:34;;;;;;;0.00;0.00;;;10.90;99.90;;;;;;4934346;29;20020;-86
2023/12/12 14:26:59;;;;;;;0.00;0.00;;;10.80;99.90;;;;;;4926698;29;20043;-87
2023/12/12 14:29:25;;;;;;;0.00;0.00;;;10.70;99.90;;;;;;4934352;29;20024;-86
2023/12/12 14:31:51;;;;;;;0.00;0.00;;;;;;;;;;4937285;29;20399;-87
2023/12/12 14:34:18;;;;;;;0.00;0.00;;;10.70;99.90;;;;;;4937226;29;20078;-86
2023/12/12 14:36:44;;;;;;;0.00;0.00;;;10.70;99.90;;;;;;4939628;29;20031;-85
2023/12/12 14:39:10;;;;;;;0.03;0.03;;;;;;;;;;4937049;29;20643;-87
2023/12/12 14:41:36;;;;;;;0.00;0.00;;;;;;;;;;4929537;29;20028;-87
2023/12/12 14:44:03;;;;;;;0.00;0.00;;;;;;;;;;4937177;29;20059;-86
2023/12/12 14:46:28;;;;;;;0.00;0.00;;;;;;;;;;4936201;29;20059;-86
2023/12/12 14:48:55;;;;;;;0.00;0.00;;;;;;;;;;4934204;29;20067;-86
2023/12/12 14:51:23;;;;;;;0.00;0.00;;;10.00;99.90;;;;;;4935677;29;20086;-86
2023/12/12 14:53:49;;;;;;;0.00;0.00;;;;;;;;;;4931255;29;20066;-87
2023/12/12 14:56:15;;;;;;;0.03;0.03;;;;;;;;;;4934630;29;20070;-86
2023/12/12 14:58:41;;;;;;;0.00;0.00;;;;;;;;;;4932268;29;20047;-89
2023/12/12 15:01:07;;;;;;;0.05;0.05;;;9.50;99.90;;;;;;4934337;29;20070;-89
2023/12/12 15:03:33;;;;;;;0.00;0.00;;;;;;;;;;4933256;29;20086;-87
2023/12/12 15:05:59;;;;;;;0.10;0.10;;;9.50;99.90;;;;;;4931097;29;20516;-86
2023/12/12 15:08:24;;;;;;;0.10;0.10;;;9.40;99.90;;;;;;4933459;29;20039;-86
2023/12/12 15:10:50;;;;;;;0.00;0.00;;;9.40;99.90;;;;;;4929895;29;20039;-86
2023/12/12 15:13:16;;;;;;;0.00;0.00;;;;;;;;;;4934915;29;20449;-86
2023/12/12 15:15:42;;;;;;;0.10;0.10;;;;;;;;;;4938112;29;20437;-85
2023/12/12 15:18:08;;;;;;;0.00;0.00;;;9.20;99.90;;;;;;4936358;29;22326;-86
2023/12/12 15:20:34;;;;;;;0.00;0.00;;;9.20;99.90;;;;;;4932132;29;20073;-87
2023/12/12 15:23:00;;;;;;;0.00;0.00;;;;;;;;;;4931152;29;20032;-89
2023/12/12 15:25:26;;;;;;;0.10;0.10;;;;;;;;;;4928918;29;20556;-87
2023/12/12 15:27:52;;;;;;;0.00;0.00;;;;;;;;;;4936646;29;20110;-86
2023/12/12 15:30:18;;;;;;;0.00;0.00;;;;;;;;;;4927114;29;20027;-88
2023/12/12 15:32:45;;;;;;;0.00;0.00;;;;;;;;;;4931343;29;20115;-89
2023/12/12 15:35:12;;;;;;;0.10;0.10;;;;;;;;;;4938562;29;20044;-90
2023/12/12 15:37:38;;;;;;;0.00;0.00;;;8.80;99.90;;;;;;4947878;29;20036;-87
2023/12/12 15:40:05;;;;;;;0.10;0.10;;;8.80;99.90;;;;;;4933806;29;20111;-90
2023/12/12 15:42:30;;;;;;;0.10;0.10;;;8.80;99.90;;;;;;4928971;29;20881;-87
2023/12/12 15:44:57;;;;;;;0.10;0.10;;;;;;;;;;4939610;29;20027;-88
2023/12/12 15:47:22;;;;;;;0.10;0.10;;;;;;;;;;4934425;28;20130;-88
2023/12/12 15:49:49;;;;;;;0.00;0.00;;;;;;;;;;4938632;28;20083;-88
2023/12/12 15:52:15;;;;;;;0.10;0.10;;;;;;;;;;4936575;29;20048;-90
2023/12/12 15:54:41;;;;;;;0.00;0.00;;;;;;;;;;4940989;29;20039;-90
2023/12/12 15:57:07;;;;;;;0.03;0.03;;;;;;;;;;4934625;29;20035;-87
2023/12/12 15:59:36;;;;;;;0.00;0.00;;;8.80;99.90;;;;;;4931755;29;20039;-88
2023/12/12 16:02:02;;;;;;;0.00;0.00;;;;;;;;;;4935805;29;20027;-87
2023/12/12 16:04:28;;;;;;;0.00;0.00;;;;;;;;;;4937305;29;20046;-87
2023/12/12 16:06:54;;;;;;;0.10;0.10;;;;;;;;;;4934834;29;20110;-85
2023/12/12 16:09:20;;;;;;;0.10;0.10;;;;;;;;;;4936252;29;20126;-87
2023/12/12 16:11:47;;;;;;;0.10;0.10;;;;;;;;;;4930258;29;20043;-87
2023/12/12 16:14:13;;;;;;;0.10;0.10;;;9.10;99.90;;;;;;4937906;29;20091;-88
2023/12/12 16:16:41;;;;;;;0.03;0.03;;;;;;;;;;4936328;29;20032;-85
2023/12/12 16:19:07;;;;;;;0.10;0.10;;;;;;;;;;4932777;29;20035;-88
2023/12/12 16:21:37;;;;;;;0.10;0.10;;;;;;;;;;4929099;29;20024;-88
2023/12/12 16:24:04;;;;;;;;;;;9.00;99.90;;;;;;4927251;29;20035;-87
2023/12/12 16:26:30;;;;;;;0.03;0.03;;;;;;;;;;4930344;29;19914;-87
2023/12/12 16:28:55;;;;;;;0.00;0.00;;;9.10;99.90;;;;;;4934272;28;20095;-87
2023/12/12 16:31:23;;;;;;;0.00;0.00;;;;;;;;;;4931404;29;20119;-87
2023/12/12 16:33:49;;;;;;;0.10;0.10;;;;;;;;;;4929282;29;20110;-88
2023/12/12 16:36:15;;;;;;;0.00;0.00;;;;;;;;;;4931094;29;20036;-86
2023/12/12 16:38:41;;;;;;;0.10;0.10;;;;;;;;;;4931029;29;20066;-86
2023/12/12 16:41:07;;;;;;;0.00;0.00;;;;;;;;;;4927793;29;20512;-87
2023/12/12 16:43:33;;;;;;;0.10;0.10;;;;;;;;;;4932643;29;20035;-88
2023/12/12 16:45:59;;;;;;;0.00;0.00;;;;;;;;;;4927375;29;20055;-89
2023/12/12 16:48:25;;;;;;;0.10;0.10;;;;;;;;;;4930336;29;20036;-87
2023/12/12 16:50:51;;;;;;;0.10;0.10;;;;;;;;;;4926513;29;20036;-86
2023/12/12 16:53:17;;;;;;;0.00;0.00;;;;;;;;;;4927330;29;20103;-86
2023/12/12 16:55:43;;;;;;;0.00;0.00;;;;;;;;;;4929104;29;20163;-86
2023/12/12 16:58:09;;;;;;;0.00;0.00;;;;;;;;;;4934130;29;20174;-86
2023/12/12 17:00:35;;;;;;;0.10;0.10;;;;;;;;;;4928612;29;20031;-88
2023/12/12 17:03:03;;;;;;;0.00;0.00;;;;;;;;;;4929372;29;20038;-88
2023/12/12 17:05:29;;;;;;;0.03;0.03;;;;;;;;;;4926373;29;20044;-87
2023/12/12 17:07:55;;;;;;;0.00;0.00;;;;;;;;;;4929645;29;20213;-86
2023/12/12 17:10:21;;;;;;;0.00;0.00;;;;;;;;;;4927592;29;20123;-87
2023/12/12 17:12:47;;;;;;;0.00;0.00;;;;;;;;;;4930490;29;20035;-87
2023/12/12 17:15:13;;;;;;;0.10;0.10;;;;;;;;;;4928548;29;20024;-86
2023/12/12 17:17:39;;;;;;;0.00;0.00;;;;;;;;;;4923464;29;20178;-86
2023/12/12 17:20:06;;;;;;;0.00;0.00;;;9.30;99.90;;;;;;4928565;29;20090;-86
2023/12/12 17:22:31;;;;;;;0.00;0.00;;;;;;;;;;4927467;29;20512;-86
2023/12/12 17:24:57;;;;;;;0.00;0.00;;;9.20;99.90;;;;;;4935169;29;20063;-85
2023/12/12 17:27:23;;;;;;;0.00;0.00;;;;;;;;;;4934459;29;20482;-86
2023/12/12 17:29:49;;;;;;;0.10;0.10;;;;;;;;;;4929519;29;20031;-87
2023/12/12 17:32:15;;;;;;;0.05;0.05;;;9.10;99.90;;;;;;4927831;29;20421;-86
2023/12/12 17:34:45;;;;;;;0.00;0.00;;;9.00;99.90;;;;;;4932164;29;20044;-88
2023/12/12 17:37:11;;;;;;;0.00;0.00;;;;;;;;;;4928858;29;20032;-89
2023/12/12 17:39:37;;;;;;;0.00;0.00;;;9.10;99.90;;;;;;4927122;29;20131;-87
2023/12/12 17:42:03;;;;;;;0.00;0.00;;;8.90;99.90;;;;;;4926862;29;20519;-86
2023/12/12 17:44:29;;;;;;;0.10;0.10;;;9.10;99.90;;;;;;4933204;29;20437;-85
2023/12/12 17:46:54;;;;;;;0.10;0.10;;;9.10;99.90;;;;;;4930925;29;20046;-86
2023/12/12 17:49:20;;;;;;;0.00;0.00;;;9.10;99.90;;;;;;4928671;29;20031;-87
2023/12/12 17:51:45;;;;;;;0.10;0.10;;;9.10;99.90;;;;;;4928115;29;20023;-89
2023/12/12 17:54:11;;;;;;;0.10;0.10;;;;;;;;;;4926896;29;20517;-88
2023/12/12 17:56:37;;;;;;;0.10;0.10;;;;;;;;;;4930268;29;20039;-86
2023/12/12 17:59:03;;;;;;;0.10;0.10;;;;;;;;;;4927004;29;20152;-88
2023/12/12 18:01:35;;;;;;;0.00;0.00;;;9.00;99.90;;;;;;4922996;29;20123;-87
2023/12/12 18:04:01;;;;;;;0.10;0.10;;;;;;;;;;4924230;29;20411;-87
2023/12/12 18:06:34;;;;;;;0.10;0.10;;;;;;;;;;4924993;29;20040;-87
2023/12/12 18:09:00;;;;;;;0.00;0.00;;;;;;;;;;4927772;29;20200;-87
2023/12/12 18:11:26;;;;;;;0.10;0.10;;;;;;;;;;4929256;29;20032;-89
2023/12/12 18:13:53;;;;;;;0.10;0.10;;;;;;;;;;4926965;29;20027;-87
2023/12/12 18:16:19;;;;;;;0.08;0.08;;;;;;;;;;4930422;29;20473;-88
2023/12/12 18:18:45;;;;;;;0.10;0.10;;;;;;;;;;4924910;29;20035;-87
2023/12/12 18:21:12;;;;;;;0.10;0.10;;;;;;;;;;4930122;29;20028;-87
2023/12/12 18:23:38;;;;;;;0.00;0.00;;;;;;;;;;4934223;29;20114;-88
2023/12/12 18:26:04;;;;;;;0.10;0.10;;;8.90;99.90;;;;;;4929515;29;20085;-88
2023/12/12 18:28:30;;;;;;;0.10;0.10;;;;;;;;;;4930816;29;20156;-87
2023/12/12 18:30:56;;;;;;;0.00;0.00;;;;;;;;;;4924898;29;20040;-88
2023/12/12 18:33:21;;;;;;;0.10;0.10;;;8.90;99.90;;;;;;4932772;29;20031;-87
2023/12/12 18:35:47;;;;;;;0.00;0.00;;;;;;;;;;4932158;29;20028;-88
2023/12/12 18:38:13;;;;;;;0.10;0.10;;;;;;;;;;4928089;29;20031;-88
2023/12/12 18:40:39;;;;;;;0.10;0.10;;;;;;;;;;4928029;29;20086;-86
2023/12/12 18:43:05;;;;;;;0.10;0.10;;;8.80;99.90;;;;;;4928962;29;20035;-87
2023/12/12 18:45:31;;;;;;;0.10;0.10;;;8.80;99.90;;;;;;4929360;29;20034;-88
2023/12/12 18:47:57;;;;;;;0.10;0.10;;;;;;;;;;4920194;29;20032;-87
2023/12/12 18:50:23;;;;;;;0.10;0.10;;;;;;;;;;4923539;29;20063;-87
2023/12/12 18:52:50;;;;;;;0.10;0.10;;;;;;;;;;4928799;29;20062;-89
2023/12/12 18:55:16;;;;;;;0.00;0.00;;;;;;;;;;4927614;29;20509;-88
2023/12/12 18:57:44;;;;;;;0.10;0.10;;;;;;;;;;4929473;29;20028;-88
2023/12/12 19:00:10;;;;;;;0.10;0.10;;;8.80;99.90;;;;;;4929117;29;20051;-87
2023/12/12 19:02:40;;;;;;;0.00;0.00;;;8.80;99.90;;;;;;4930850;29;20023;-88
2023/12/12 19:05:12;;;;;;;;;;;8.70;99.90;;;;;;4932697;29;20035;-87
2023/12/12 19:07:42;;;;;;;0.10;0.10;;;8.60;99.90;;;;;;4934004;29;19910;-88
2023/12/12 19:10:09;;;;;;;0.10;0.10;;;8.60;99.90;;;;;;4932475;29;20031;-87
2023/12/12 19:12:39;;;;;;;0.10;0.10;;;8.60;99.90;;;;;;4932882;29;20167;-87
2023/12/12 19:15:06;;;;;;;0.10;0.10;;;8.50;99.90;;;;;;4927308;29;21836;-87
2023/12/12 19:17:32;;;;;;;0.05;0.05;;;;;;;;;;4937239;29;20036;-86
2023/12/12 19:56:12;;;;;;;0.10;0.10;;;;;;;;;;4936597;29;20028;-92
2023/12/12 19:58:38;;;;;;;0.00;0.00;;;;;;;;;;4934630;29;20032;-90
2023/12/12 20:01:04;;;;;;;0.10;0.10;;;;;;;;;;4938470;29;20012;-93
2023/12/12 20:03:30;;;;;;;0.10;0.10;;;;;;;;;;4934293;29;20039;-93
2023/12/12 20:05:56;;;;;;;0.05;0.05;;;;;;;;;;4934218;29;20067;-94
2023/12/12 20:08:22;;;;;;;0.00;0.00;;;;;;;;;;4937398;29;20035;-93
2023/12/12 20:10:50;;;;;;;0.10;0.10;;;;;;;;;;4940456;29;20024;-93
2023/12/12 20:13:26;;;;;;;0.10;0.10;;;;;;;;;;4939075;29;20055;-92
2023/12/12 20:15:52;;;;;;;0.00;0.00;;;;;;;;;;4952196;29;20035;-93
2023/12/12 20:18:19;;;;;;;0.10;0.10;;;;;;;;;;4936684;29;20032;-92